sensor_id;sensor_type;location;lat;lon;timestamp;pressure;altitude;pressure_sealevel;temperature;humidity
74529;BME280;63009;52.584;5.932;2022-09-13T00:01:13;101141.38;;;18.04;85.19
74529;BME280;63009;52.584;5.932;2022-09-13T00:03:38;101155.63;;;18.04;85.89
74529;BME280;63009;52.584;5.932;2022-09-13T00:06:12;101151.13;;;18.05;85.79
74529;BME280;63009;52.584;5.932;2022-09-13T00:08:38;101142.94;;;18.06;86.21
74529;BME280;63009;52.584;5.932;2022-09-13T00:11:04;101139.16;;;18.09;86.44
74529;BME280;63009;52.584;5.932;2022-09-13T00:13:29;101141.84;;;18.09;86.26
74529;BME280;63009;52.584;5.932;2022-09-13T00:15:54;101151.81;;;18.07;86.28
74529;BME280;63009;52.584;5.932;2022-09-13T00:18:20;101154.22;;;18.10;87.16
74529;BME280;63009;52.584;5.932;2022-09-13T00:20:45;101139.88;;;18.11;87.23
74529;BME280;63009;52.584;5.932;2022-09-13T00:23:11;101142.69;;;18.09;87.19
74529;BME280;63009;52.584;5.932;2022-09-13T00:25:37;101139.88;;;18.11;86.96
74529;BME280;63009;52.584;5.932;2022-09-13T00:28:04;101129.31;;;18.09;87.70
74529;BME280;63009;52.584;5.932;2022-09-13T00:30:29;101131.84;;;18.11;87.66
74529;BME280;63009;52.584;5.932;2022-09-13T00:32:55;101131.00;;;18.10;87.36
74529;BME280;63009;52.584;5.932;2022-09-13T00:35:20;101127.34;;;18.12;87.27
74529;BME280;63009;52.584;5.932;2022-09-13T00:37:45;101114.25;;;18.08;87.13
74529;BME280;63009;52.584;5.932;2022-09-13T00:40:11;101108.94;;;17.97;87.41
74529;BME280;63009;52.584;5.932;2022-09-13T00:42:36;101122.66;;;18.04;87.36
74529;BME280;63009;52.584;5.932;2022-09-13T00:52:45;101112.75;;;17.95;87.17
74529;BME280;63009;52.584;5.932;2022-09-13T00:55:23;101104.00;;;17.93;86.95
74529;BME280;63009;52.584;5.932;2022-09-13T00:57:52;101112.16;;;17.91;87.09
74529;BME280;63009;52.584;5.932;2022-09-13T01:00:19;101105.13;;;17.90;87.57
74529;BME280;63009;52.584;5.932;2022-09-13T01:02:49;101110.59;;;17.89;87.46
74529;BME280;63009;52.584;5.932;2022-09-13T01:05:19;101103.66;;;17.86;87.37
74529;BME280;63009;52.584;5.932;2022-09-13T01:07:46;101101.25;;;17.83;87.13
74529;BME280;63009;52.584;5.932;2022-09-13T01:10:12;101100.66;;;17.79;87.52
74529;BME280;63009;52.584;5.932;2022-09-13T01:12:52;101107.97;;;17.77;87.28
74529;BME280;63009;52.584;5.932;2022-09-13T01:15:19;101100.53;;;17.81;87.06
74529;BME280;63009;52.584;5.932;2022-09-13T01:17:44;101102.50;;;17.79;86.89
74529;BME280;63009;52.584;5.932;2022-09-13T01:20:11;101098.97;;;17.78;87.64
74529;BME280;63009;52.584;5.932;2022-09-13T01:23:05;101094.75;;;17.76;88.21
74529;BME280;63009;52.584;5.932;2022-09-13T01:25:53;101088.69;;;17.74;87.98
74529;BME280;63009;52.584;5.932;2022-09-13T01:28:41;101089.75;;;17.71;87.90
74529;BME280;63009;52.584;5.932;2022-09-13T01:31:34;101082.84;;;17.69;87.99
74529;BME280;63009;52.584;5.932;2022-09-13T01:34:09;101086.25;;;17.71;88.13
74529;BME280;63009;52.584;5.932;2022-09-13T01:40:04;101077.25;;;17.72;87.82
74529;BME280;63009;52.584;5.932;2022-09-13T01:43:00;101076.66;;;17.68;88.31
74529;BME280;63009;52.584;5.932;2022-09-13T01:45:42;101078.47;;;17.68;88.40
74529;BME280;63009;52.584;5.932;2022-09-13T01:48:20;101077.63;;;17.67;88.80
74529;BME280;63009;52.584;5.932;2022-09-13T01:55:49;101073.38;;;17.65;89.59
74529;BME280;63009;52.584;5.932;2022-09-13T01:58:18;101075.47;;;17.61;89.57
74529;BME280;63009;52.584;5.932;2022-09-13T02:01:15;101085.06;;;17.64;89.91
74529;BME280;63009;52.584;5.932;2022-09-13T02:03:48;101086.75;;;17.65;89.41
74529;BME280;63009;52.584;5.932;2022-09-13T02:06:23;101077.63;;;17.67;89.81
74529;BME280;63009;52.584;5.932;2022-09-13T02:08:56;101079.06;;;17.71;90.04
74529;BME280;63009;52.584;5.932;2022-09-13T02:11:25;101078.34;;;17.69;89.83
74529;BME280;63009;52.584;5.932;2022-09-13T02:14:05;101078.94;;;17.73;89.43
74529;BME280;63009;52.584;5.932;2022-09-13T02:16:35;101078.94;;;17.73;89.55
74529;BME280;63009;52.584;5.932;2022-09-13T02:19:17;101070.91;;;17.73;89.75
74529;BME280;63009;52.584;5.932;2022-09-13T02:21:46;101078.72;;;17.76;89.51
74529;BME280;63009;52.584;5.932;2022-09-13T02:24:19;101069.00;;;17.75;89.29
74529;BME280;63009;52.584;5.932;2022-09-13T02:26:49;101072.38;;;17.77;89.15
74529;BME280;63009;52.584;5.932;2022-09-13T02:29:18;101063.38;;;17.78;89.33
74529;BME280;63009;52.584;5.932;2022-09-13T02:32:08;101069.44;;;17.80;89.53
74529;BME280;63009;52.584;5.932;2022-09-13T02:34:53;101068.47;;;17.81;89.77
74529;BME280;63009;52.584;5.932;2022-09-13T02:37:22;101064.81;;;17.82;89.55
74529;BME280;63009;52.584;5.932;2022-09-13T02:39:51;101071.72;;;17.85;88.90
74529;BME280;63009;52.584;5.932;2022-09-13T02:42:22;101061.16;;;17.83;89.14
74529;BME280;63009;52.584;5.932;2022-09-13T02:44:55;101057.34;;;17.86;89.42
74529;BME280;63009;52.584;5.932;2022-09-13T02:50:20;101068.31;;;17.83;89.43
74529;BME280;63009;52.584;5.932;2022-09-13T02:55:41;101051.84;;;17.77;89.52
74529;BME280;63009;52.584;5.932;2022-09-13T02:58:17;101067.06;;;17.87;89.73
74529;BME280;63009;52.584;5.932;2022-09-13T03:00:44;101070.72;;;17.86;89.23
74529;BME280;63009;52.584;5.932;2022-09-13T03:03:12;101069.66;;;17.88;89.01
74529;BME280;63009;52.584;5.932;2022-09-13T03:05:39;101068.91;;;17.86;89.58
74529;BME280;63009;52.584;5.932;2022-09-13T03:08:07;101082.03;;;17.89;89.53
74529;BME280;63009;52.584;5.932;2022-09-13T03:10:47;101087.25;;;17.91;89.25
74529;BME280;63009;52.584;5.932;2022-09-13T03:21:59;101080.34;;;17.88;89.50
74529;BME280;63009;52.584;5.932;2022-09-13T03:27:05;101069.66;;;17.88;89.45
74529;BME280;63009;52.584;5.932;2022-09-13T03:29:51;101058.81;;;17.90;89.22
74529;BME280;63009;52.584;5.932;2022-09-13T03:32:25;101061.63;;;17.88;89.52
74529;BME280;63009;52.584;5.932;2022-09-13T03:35:19;101064.03;;;17.91;89.46
74529;BME280;63009;52.584;5.932;2022-09-13T03:38:11;101070.09;;;17.93;89.48
74529;BME280;63009;52.584;5.932;2022-09-13T03:40:44;101068.53;;;17.91;89.74
74529;BME280;63009;52.584;5.932;2022-09-13T03:45:43;101064.03;;;17.91;89.88
74529;BME280;63009;52.584;5.932;2022-09-13T03:48:10;101064.75;;;17.93;89.55
74529;BME280;63009;52.584;5.932;2022-09-13T03:50:38;101067.28;;;17.95;89.33
74529;BME280;63009;52.584;5.932;2022-09-13T03:53:08;101068.13;;;17.95;88.94
74529;BME280;63009;52.584;5.932;2022-09-13T03:55:38;101064.47;;;17.96;89.65
74529;BME280;63009;52.584;5.932;2022-09-13T03:58:04;101060.09;;;17.95;89.21
74529;BME280;63009;52.584;5.932;2022-09-13T04:00:30;101054.19;;;17.92;89.47
74529;BME280;63009;52.584;5.932;2022-09-13T04:02:56;101062.91;;;17.94;89.14
74529;BME280;63009;52.584;5.932;2022-09-13T04:05:21;101064.75;;;17.93;89.03
74529;BME280;63009;52.584;5.932;2022-09-13T04:07:46;101068.53;;;17.91;89.44
74529;BME280;63009;52.584;5.932;2022-09-13T04:10:12;101067.69;;;17.90;89.29
74529;BME280;63009;52.584;5.932;2022-09-13T04:12:38;101071.19;;;17.91;88.96
74529;BME280;63009;52.584;5.932;2022-09-13T04:15:06;101052.84;;;17.86;89.34
74529;BME280;63009;52.584;5.932;2022-09-13T04:17:31;101068.91;;;17.86;89.43
74529;BME280;63009;52.584;5.932;2022-09-13T04:19:56;101073.25;;;17.87;89.13
74529;BME280;63009;52.584;5.932;2022-09-13T04:22:22;101072.56;;;17.85;89.22
74529;BME280;63009;52.584;5.932;2022-09-13T04:24:47;101065.38;;;17.86;89.39
74529;BME280;63009;52.584;5.932;2022-09-13T04:27:12;101077.66;;;17.88;89.28
74529;BME280;63009;52.584;5.932;2022-09-13T04:29:38;101074.25;;;17.86;89.04
74529;BME280;63009;52.584;5.932;2022-09-13T04:32:03;101079.59;;;17.86;89.30
74529;BME280;63009;52.584;5.932;2022-09-13T04:34:29;101073.66;;;17.83;89.09
74529;BME280;63009;52.584;5.932;2022-09-13T04:36:54;101076.34;;;17.83;89.13
74529;BME280;63009;52.584;5.932;2022-09-13T04:39:20;101077.47;;;17.80;89.34
74529;BME280;63009;52.584;5.932;2022-09-13T04:41:47;101074.44;;;17.73;89.63
74529;BME280;63009;52.584;5.932;2022-09-13T04:44:14;101076.16;;;17.74;89.53
74529;BME280;63009;52.584;5.932;2022-09-13T04:46:40;101074.00;;;17.68;89.76
74529;BME280;63009;52.584;5.932;2022-09-13T04:49:06;101077.25;;;17.72;89.93
74529;BME280;63009;52.584;5.932;2022-09-13T04:51:31;101082.72;;;17.70;89.88
74529;BME280;63009;52.584;5.932;2022-09-13T04:53:57;101081.88;;;17.70;89.83
74529;BME280;63009;52.584;5.932;2022-09-13T04:56:23;101090.03;;;17.68;90.13
74529;BME280;63009;52.584;5.932;2022-09-13T04:58:53;101073.25;;;17.66;89.92
74529;BME280;63009;52.584;5.932;2022-09-13T05:01:19;101089.75;;;17.71;90.60
74529;BME280;63009;52.584;5.932;2022-09-13T05:03:45;101085.63;;;17.67;90.60
74529;BME280;63009;52.584;5.932;2022-09-13T05:06:13;101088.19;;;17.69;90.95
74529;BME280;63009;52.584;5.932;2022-09-13T05:08:39;101081.25;;;17.66;91.17
74529;BME280;63009;52.584;5.932;2022-09-13T05:11:05;101083.81;;;17.68;90.70
74529;BME280;63009;52.584;5.932;2022-09-13T05:13:32;101083.69;;;17.69;90.47
74529;BME280;63009;52.584;5.932;2022-09-13T05:16:01;101087.09;;;17.71;91.06
74529;BME280;63009;52.584;5.932;2022-09-13T05:18:30;101090.63;;;17.72;90.88
74529;BME280;63009;52.584;5.932;2022-09-13T05:20:57;101086.13;;;17.72;90.69
74529;BME280;63009;52.584;5.932;2022-09-13T05:23:24;101087.22;;;17.70;91.03
74529;BME280;63009;52.584;5.932;2022-09-13T05:25:53;101094.88;;;17.74;91.12
74529;BME280;63009;52.584;5.932;2022-09-13T05:28:19;101094.97;;;17.73;90.96
74529;BME280;63009;52.584;5.932;2022-09-13T05:33:21;101126.81;;;17.76;90.82
74529;BME280;63009;52.584;5.932;2022-09-13T05:35:46;101125.84;;;17.77;90.77
74529;BME280;63009;52.584;5.932;2022-09-13T05:38:11;101130.22;;;17.78;90.96
74529;BME280;63009;52.584;5.932;2022-09-13T05:40:37;101128.00;;;17.83;90.38
74529;BME280;63009;52.584;5.932;2022-09-13T05:43:02;101126.28;;;17.82;90.31
74529;BME280;63009;52.584;5.932;2022-09-13T05:45:27;101126.44;;;17.80;90.00
74529;BME280;63009;52.584;5.932;2022-09-13T05:47:53;101133.22;;;17.85;89.54
74529;BME280;63009;52.584;5.932;2022-09-13T05:50:18;101135.03;;;17.84;89.56
74529;BME280;63009;52.584;5.932;2022-09-13T05:52:50;101131.50;;;17.84;89.81
74529;BME280;63009;52.584;5.932;2022-09-13T05:55:16;101135.88;;;17.85;89.33
74529;BME280;63009;52.584;5.932;2022-09-13T05:57:41;101141.09;;;17.86;88.91
74529;BME280;63009;52.584;5.932;2022-09-13T06:00:07;101149.88;;;17.88;89.21
74529;BME280;63009;52.584;5.932;2022-09-13T06:02:32;101148.28;;;17.86;89.32
74529;BME280;63009;52.584;5.932;2022-09-13T06:04:58;101153.25;;;17.90;89.67
74529;BME280;63009;52.584;5.932;2022-09-13T06:07:23;101147.91;;;17.90;89.60
74529;BME280;63009;52.584;5.932;2022-09-13T06:09:48;101148.63;;;17.92;89.29
74529;BME280;63009;52.584;5.932;2022-09-13T06:12:13;101147.06;;;17.90;89.69
74529;BME280;63009;52.584;5.932;2022-09-13T06:14:39;101151.28;;;17.92;89.55
74529;BME280;63009;52.584;5.932;2022-09-13T06:17:05;101156.38;;;17.95;89.37
74529;BME280;63009;52.584;5.932;2022-09-13T06:19:30;101157.34;;;17.94;89.65
74529;BME280;63009;52.584;5.932;2022-09-13T06:21:55;101155.25;;;17.98;89.79
74529;BME280;63009;52.584;5.932;2022-09-13T06:24:21;101158.06;;;17.96;89.89
74529;BME280;63009;52.584;5.932;2022-09-13T06:26:46;101153.44;;;17.98;89.78
74529;BME280;63009;52.584;5.932;2022-09-13T06:29:11;101158.66;;;18.00;89.92
74529;BME280;63009;52.584;5.932;2022-09-13T06:31:37;101168.28;;;18.02;89.60
74529;BME280;63009;52.584;5.932;2022-09-13T06:34:10;101158.41;;;18.03;89.74
74529;BME280;63009;52.584;5.932;2022-09-13T06:36:36;101160.97;;;18.04;89.46
74529;BME280;63009;52.584;5.932;2022-09-13T06:39:02;101165.34;;;18.05;89.70
74529;BME280;63009;52.584;5.932;2022-09-13T06:41:28;101150.13;;;18.06;89.17
74529;BME280;63009;52.584;5.932;2022-09-13T06:43:58;101162.97;;;18.12;89.02
74529;BME280;63009;52.584;5.932;2022-09-13T06:46:31;101162.84;;;18.14;87.78
74529;BME280;63009;52.584;5.932;2022-09-13T06:49:02;101159.19;;;18.15;87.89
74529;BME280;63009;52.584;5.932;2022-09-13T06:51:28;101160.88;;;18.16;86.75
74529;BME280;63009;52.584;5.932;2022-09-13T06:53:54;101161.75;;;18.16;86.77
74529;BME280;63009;52.584;5.932;2022-09-13T06:56:32;101163.31;;;18.19;86.48
74529;BME280;63009;52.584;5.932;2022-09-13T06:59:00;101170.34;;;18.20;86.35
74529;BME280;63009;52.584;5.932;2022-09-13T07:01:38;101168.41;;;18.22;86.37
74529;BME280;63009;52.584;5.932;2022-09-13T07:04:09;101157.97;;;18.19;85.96
74529;BME280;63009;52.584;5.932;2022-09-13T07:06:37;101157.81;;;18.20;85.67
74529;BME280;63009;52.584;5.932;2022-09-13T07:09:05;101158.41;;;18.24;85.88
74529;BME280;63009;52.584;5.932;2022-09-13T07:11:36;101164.19;;;18.29;85.91
74529;BME280;63009;52.584;5.932;2022-09-13T07:14:02;101159.69;;;18.29;85.91
74529;BME280;63009;52.584;5.932;2022-09-13T07:16:32;101156.06;;;18.30;85.63
74529;BME280;63009;52.584;5.932;2022-09-13T07:19:00;101161.88;;;18.35;85.85
74529;BME280;63009;52.584;5.932;2022-09-13T07:21:27;101154.81;;;18.34;85.93
74529;BME280;63009;52.584;5.932;2022-09-13T07:23:53;101154.53;;;18.37;85.91
74529;BME280;63009;52.584;5.932;2022-09-13T07:26:20;101150.38;;;18.45;85.80
74529;BME280;63009;52.584;5.932;2022-09-13T07:28:48;101157.84;;;18.51;85.11
74529;BME280;63009;52.584;5.932;2022-09-13T07:31:17;101156.09;;;18.61;85.21
74529;BME280;63009;52.584;5.932;2022-09-13T07:33:44;101145.44;;;18.71;85.25
74529;BME280;63009;52.584;5.932;2022-09-13T07:36:10;101142.66;;;18.82;85.00
74529;BME280;63009;52.584;5.932;2022-09-13T07:38:41;101154.56;;;18.89;84.44
74529;BME280;63009;52.584;5.932;2022-09-13T07:41:10;101157.09;;;19.00;84.03
74529;BME280;63009;52.584;5.932;2022-09-13T07:43:36;101158.25;;;19.07;83.12
74529;BME280;63009;52.584;5.932;2022-09-13T07:46:09;101148.56;;;19.16;82.96
74529;BME280;63009;52.584;5.932;2022-09-13T07:48:37;101161.97;;;19.25;82.45
74529;BME280;63009;52.584;5.932;2022-09-13T07:51:08;101158.75;;;19.32;82.18
74529;BME280;63009;52.584;5.932;2022-09-13T07:53:35;101172.16;;;19.41;82.15
74529;BME280;63009;52.584;5.932;2022-09-13T07:56:05;101167.38;;;19.45;81.81
74529;BME280;63009;52.584;5.932;2022-09-13T07:58:35;101170.06;;;19.45;81.00
74529;BME280;63009;52.584;5.932;2022-09-13T08:01:05;101168.66;;;19.50;80.26
74529;BME280;63009;52.584;5.932;2022-09-13T08:03:34;101175.91;;;19.60;80.27
74529;BME280;63009;52.584;5.932;2022-09-13T08:06:00;101176.03;;;19.68;80.31
74529;BME280;63009;52.584;5.932;2022-09-13T08:08:27;101172.66;;;19.75;79.98
74529;BME280;63009;52.584;5.932;2022-09-13T08:10:52;101174.34;;;19.76;79.78
74529;BME280;63009;52.584;5.932;2022-09-13T08:13:18;101165.03;;;19.80;78.72
74529;BME280;63009;52.584;5.932;2022-09-13T08:15:43;101181.69;;;19.84;78.70
74529;BME280;63009;52.584;5.932;2022-09-13T08:18:08;101188.34;;;19.99;78.52
74529;BME280;63009;52.584;5.932;2022-09-13T08:20:35;101187.06;;;20.03;77.53
74529;BME280;63009;52.584;5.932;2022-09-13T08:23:01;101192.28;;;20.14;77.17
74529;BME280;63009;52.584;5.932;2022-09-13T08:25:26;101202.72;;;20.27;78.09
74529;BME280;63009;52.584;5.932;2022-09-13T08:27:51;101202.25;;;20.51;77.87
74529;BME280;63009;52.584;5.932;2022-09-13T08:30:17;101204.53;;;20.93;77.02
74529;BME280;63009;52.584;5.932;2022-09-13T08:32:42;101210.47;;;21.24;75.93
74529;BME280;63009;52.584;5.932;2022-09-13T08:35:07;101194.66;;;21.66;74.17
74529;BME280;63009;52.584;5.932;2022-09-13T08:37:34;101206.69;;;21.89;72.31
74529;BME280;63009;52.584;5.932;2022-09-13T08:39:59;101192.06;;;22.10;71.62
74529;BME280;63009;52.584;5.932;2022-09-13T08:42:45;101195.38;;;22.47;69.78
74529;BME280;63009;52.584;5.932;2022-09-13T08:45:15;101193.59;;;22.82;67.89
74529;BME280;63009;52.584;5.932;2022-09-13T08:47:45;101198.50;;;23.21;66.74
74529;BME280;63009;52.584;5.932;2022-09-13T08:50:16;101193.19;;;23.45;65.19
74529;BME280;63009;52.584;5.932;2022-09-13T08:55:45;101192.00;;;23.39;64.24
74529;BME280;63009;52.584;5.932;2022-09-13T09:01:37;101191.19;;;23.05;63.27
74529;BME280;63009;52.584;5.932;2022-09-13T09:07:16;101191.13;;;22.89;62.96
74529;BME280;63009;52.584;5.932;2022-09-13T09:09:48;101186.97;;;23.02;61.64
74529;BME280;63009;52.584;5.932;2022-09-13T09:12:19;101181.00;;;23.33;62.49
74529;BME280;63009;52.584;5.932;2022-09-13T09:15:02;101185.84;;;23.72;62.32
74529;BME280;63009;52.584;5.932;2022-09-13T09:20:23;101187.59;;;24.30;59.37
74529;BME280;63009;52.584;5.932;2022-09-13T09:22:52;101186.38;;;24.48;58.90
74529;BME280;63009;52.584;5.932;2022-09-13T09:25:20;101195.81;;;24.61;57.33
74529;BME280;63009;52.584;5.932;2022-09-13T09:27:47;101201.41;;;24.43;57.68
74529;BME280;63009;52.584;5.932;2022-09-13T09:30:13;101196.94;;;24.74;57.70
74529;BME280;63009;52.584;5.932;2022-09-13T09:32:58;101195.97;;;24.67;54.98
74529;BME280;63009;52.584;5.932;2022-09-13T09:35:35;101203.28;;;24.34;56.55
74529;BME280;63009;52.584;5.932;2022-09-13T09:40:50;101207.81;;;23.85;58.99
74529;BME280;63009;52.584;5.932;2022-09-13T09:43:24;101195.81;;;23.87;60.12
74529;BME280;63009;52.584;5.932;2022-09-13T09:45:54;101194.81;;;23.80;58.70
74529;BME280;63009;52.584;5.932;2022-09-13T09:48:25;101196.13;;;23.76;58.83
74529;BME280;63009;52.584;5.932;2022-09-13T09:50:55;101186.84;;;23.79;58.29
74529;BME280;63009;52.584;5.932;2022-09-13T09:53:28;101187.38;;;24.15;57.45
74529;BME280;63009;52.584;5.932;2022-09-13T09:56:05;101190.75;;;24.17;57.16
74529;BME280;63009;52.584;5.932;2022-09-13T09:58:37;101195.31;;;24.00;56.78
74529;BME280;63009;52.584;5.932;2022-09-13T10:01:04;101191.44;;;24.11;55.54
74529;BME280;63009;52.584;5.932;2022-09-13T10:03:32;101189.59;;;24.11;54.63
74529;BME280;63009;52.584;5.932;2022-09-13T10:06:09;101199.00;;;23.66;56.13
74529;BME280;63009;52.584;5.932;2022-09-13T10:08:37;101202.22;;;23.86;55.54
74529;BME280;63009;52.584;5.932;2022-09-13T10:11:05;101204.28;;;24.01;55.15
74529;BME280;63009;52.584;5.932;2022-09-13T10:13:31;101204.97;;;23.94;54.94
74529;BME280;63009;52.584;5.932;2022-09-13T10:16:00;101203.59;;;23.90;55.41
74529;BME280;63009;52.584;5.932;2022-09-13T10:18:29;101210.16;;;24.04;55.88
74529;BME280;63009;52.584;5.932;2022-09-13T10:23:28;101204.97;;;24.11;54.12
74529;BME280;63009;52.584;5.932;2022-09-13T10:25:58;101201.94;;;24.22;54.33
74529;BME280;63009;52.584;5.932;2022-09-13T10:28:25;101200.72;;;23.84;54.78
74529;BME280;63009;52.584;5.932;2022-09-13T10:30:56;101204.50;;;23.57;54.92
74529;BME280;63009;52.584;5.932;2022-09-13T10:33:27;101196.66;;;23.88;53.32
74529;BME280;63009;52.584;5.932;2022-09-13T10:36:00;101199.50;;;23.62;54.26
74529;BME280;63009;52.584;5.932;2022-09-13T10:38:28;101208.13;;;23.65;55.04
74529;BME280;63009;52.584;5.932;2022-09-13T10:40:55;101203.22;;;23.77;53.34
74529;BME280;63009;52.584;5.932;2022-09-13T10:43:21;101203.47;;;23.42;53.70
74529;BME280;63009;52.584;5.932;2022-09-13T10:45:48;101195.13;;;23.19;53.39
74529;BME280;63009;52.584;5.932;2022-09-13T10:48:16;101191.22;;;23.13;54.31
74529;BME280;63009;52.584;5.932;2022-09-13T10:53:37;101186.44;;;23.49;52.13
74529;BME280;63009;52.584;5.932;2022-09-13T10:56:05;101193.06;;;23.63;52.49
74529;BME280;63009;52.584;5.932;2022-09-13T10:58:31;101199.53;;;23.70;52.19
74529;BME280;63009;52.584;5.932;2022-09-13T11:11:33;101213.53;;;23.31;52.11
74529;BME280;63009;52.584;5.932;2022-09-13T11:14:18;101206.50;;;23.38;50.59
74529;BME280;63009;52.584;5.932;2022-09-13T11:17:01;101207.13;;;23.66;50.00
74529;BME280;63009;52.584;5.932;2022-09-13T11:22:24;101203.75;;;23.89;48.67
74529;BME280;63009;52.584;5.932;2022-09-13T11:25:05;101200.88;;;23.90;48.92
74529;BME280;63009;52.584;5.932;2022-09-13T11:30:18;101202.25;;;24.27;49.26
74529;BME280;63009;52.584;5.932;2022-09-13T11:38:45;101202.59;;;24.24;47.25
74529;BME280;63009;52.584;5.932;2022-09-13T11:47:11;101184.50;;;24.57;45.81
74529;BME280;63009;52.584;5.932;2022-09-13T11:49:48;101188.78;;;24.91;46.36
74529;BME280;63009;52.584;5.932;2022-09-13T11:55:24;101180.28;;;25.49;47.39
74529;BME280;63009;52.584;5.932;2022-09-13T11:57:52;101176.44;;;25.66;45.35
74529;BME280;63009;52.584;5.932;2022-09-13T12:00:22;101166.94;;;25.70;44.47
74529;BME280;63009;52.584;5.932;2022-09-13T12:02:58;101163.59;;;25.68;44.87
74529;BME280;63009;52.584;5.932;2022-09-13T12:05:30;101160.88;;;25.60;44.73
74529;BME280;63009;52.584;5.932;2022-09-13T12:08:03;101165.47;;;25.60;45.31
74529;BME280;63009;52.584;5.932;2022-09-13T12:10:53;101174.13;;;25.55;44.59
74529;BME280;63009;52.584;5.932;2022-09-13T12:13:22;101162.09;;;25.58;45.04
74529;BME280;63009;52.584;5.932;2022-09-13T12:15:56;101157.69;;;25.34;45.60
74529;BME280;63009;52.584;5.932;2022-09-13T12:18:31;101159.53;;;25.02;47.58
74529;BME280;63009;52.584;5.932;2022-09-13T12:21:11;101171.56;;;25.31;46.32
74529;BME280;63009;52.584;5.932;2022-09-13T12:23:53;101162.69;;;25.14;44.67
74529;BME280;63009;52.584;5.932;2022-09-13T12:26:37;101167.50;;;25.35;44.66
74529;BME280;63009;52.584;5.932;2022-09-13T12:31:58;101165.59;;;25.12;44.49
74529;BME280;63009;52.584;5.932;2022-09-13T12:34:30;101157.81;;;25.40;44.93
74529;BME280;63009;52.584;5.932;2022-09-13T12:40:09;101151.94;;;25.60;44.24
74529;BME280;63009;52.584;5.932;2022-09-13T12:43:01;101150.53;;;25.72;45.73
74529;BME280;63009;52.584;5.932;2022-09-13T12:48:52;101166.47;;;25.36;46.74
74529;BME280;63009;52.584;5.932;2022-09-13T12:51:33;101162.75;;;25.37;46.48
74529;BME280;63009;52.584;5.932;2022-09-13T13:00:21;101162.16;;;25.50;45.63
74529;BME280;63009;52.584;5.932;2022-09-13T13:05:36;101158.69;;;25.87;45.40
74529;BME280;63009;52.584;5.932;2022-09-13T13:08:26;101161.22;;;25.65;43.41
74529;BME280;63009;52.584;5.932;2022-09-13T13:11:09;101155.59;;;25.44;43.55
74529;BME280;63009;52.584;5.932;2022-09-13T13:13:38;101151.84;;;25.45;46.02
74529;BME280;63009;52.584;5.932;2022-09-13T13:16:31;101159.97;;;25.45;44.21
74529;BME280;63009;52.584;5.932;2022-09-13T13:19:00;101158.41;;;25.28;44.15
74529;BME280;63009;52.584;5.932;2022-09-13T13:21:39;101159.09;;;25.53;46.05
74529;BME280;63009;52.584;5.932;2022-09-13T13:26:48;101157.84;;;25.63;43.33
74529;BME280;63009;52.584;5.932;2022-09-13T13:36:47;101167.69;;;25.56;43.33
74529;BME280;63009;52.584;5.932;2022-09-13T13:49:43;101158.63;;;24.63;43.00
74529;BME280;63009;52.584;5.932;2022-09-13T13:57:30;101170.69;;;24.44;45.82
74529;BME280;63009;52.584;5.932;2022-09-13T14:02:56;101164.75;;;24.48;47.16
74529;BME280;63009;52.584;5.932;2022-09-13T14:05:42;101166.13;;;24.44;47.56
74529;BME280;63009;52.584;5.932;2022-09-13T14:08:33;101169.50;;;24.38;45.69
74529;BME280;63009;52.584;5.932;2022-09-13T14:19:31;101160.41;;;23.98;45.45
74529;BME280;63009;52.584;5.932;2022-09-13T14:22:22;101165.28;;;23.95;46.43
74529;BME280;63009;52.584;5.932;2022-09-13T14:24:53;101165.09;;;24.05;46.93
74529;BME280;63009;52.584;5.932;2022-09-13T14:27:28;101159.53;;;24.06;47.84
74529;BME280;63009;52.584;5.932;2022-09-13T14:29:57;101153.16;;;24.07;45.85
74529;BME280;63009;52.584;5.932;2022-09-13T14:32:25;101157.88;;;23.97;46.47
74529;BME280;63009;52.584;5.932;2022-09-13T14:35:04;101169.16;;;24.17;46.45
74529;BME280;63009;52.584;5.932;2022-09-13T14:37:34;101160.88;;;24.18;48.02
74529;BME280;63009;52.584;5.932;2022-09-13T14:42:25;101165.13;;;23.80;46.69
74529;BME280;63009;52.584;5.932;2022-09-13T14:44:51;101154.16;;;23.82;46.91
74529;BME280;63009;52.584;5.932;2022-09-13T14:47:30;101155.31;;;24.04;47.28
74529;BME280;63009;52.584;5.932;2022-09-13T14:50:07;101151.44;;;23.90;46.63
74529;BME280;63009;52.584;5.932;2022-09-13T14:52:39;101164.94;;;23.98;47.63
74529;BME280;63009;52.584;5.932;2022-09-13T14:55:13;101171.53;;;24.12;46.63
74529;BME280;63009;52.584;5.932;2022-09-13T14:57:50;101164.78;;;24.24;47.81
74529;BME280;63009;52.584;5.932;2022-09-13T15:00:19;101160.22;;;24.41;47.18
74529;BME280;63009;52.584;5.932;2022-09-13T15:02:50;101157.00;;;24.13;47.65
74529;BME280;63009;52.584;5.932;2022-09-13T15:05:19;101149.44;;;23.84;47.48
74529;BME280;63009;52.584;5.932;2022-09-13T15:07:45;101150.59;;;23.89;47.13
74529;BME280;63009;52.584;5.932;2022-09-13T15:12:36;101153.47;;;23.80;46.33
74529;BME280;63009;52.584;5.932;2022-09-13T15:15:21;101149.94;;;23.87;45.95
74529;BME280;63009;52.584;5.932;2022-09-13T15:18:00;101153.31;;;23.97;47.26
74529;BME280;63009;52.584;5.932;2022-09-13T15:20:52;101156.66;;;23.91;45.52
74529;BME280;63009;52.584;5.932;2022-09-13T15:25:54;101156.00;;;23.81;47.09
74529;BME280;63009;52.584;5.932;2022-09-13T15:28:29;101163.75;;;23.68;47.91
74529;BME280;63009;52.584;5.932;2022-09-13T15:30:58;101168.47;;;23.58;48.07
74529;BME280;63009;52.584;5.932;2022-09-13T15:33:29;101159.53;;;23.57;47.48
74529;BME280;63009;52.584;5.932;2022-09-13T15:36:15;101163.50;;;23.37;47.21
74529;BME280;63009;52.584;5.932;2022-09-13T15:41:28;101166.50;;;23.26;49.55
74529;BME280;63009;52.584;5.932;2022-09-13T15:43:55;101169.16;;;23.18;50.03